createdAt,value
2018-12-15T00:01:10.469Z,20.77
2018-12-15T00:03:39.577Z,19.60
2018-12-15T00:06:08.761Z,19.27
2018-12-15T00:08:38.029Z,20.03
2018-12-15T00:11:07.266Z,18.10
2018-12-15T00:13:39.015Z,19.83
2018-12-15T00:16:08.599Z,20.03
2018-12-15T00:18:39.098Z,19.93
2018-12-15T00:21:08.277Z,19.10
2018-12-15T00:23:37.512Z,19.97
2018-12-15T00:26:07.331Z,20.63
2018-12-15T00:28:37.126Z,20.03
2018-12-15T00:31:06.204Z,19.27
2018-12-15T00:33:35.526Z,20.10
2018-12-15T00:36:04.728Z,21.23
2018-12-15T00:38:33.797Z,20.53
2018-12-15T00:41:03.014Z,20.20
2018-12-15T00:43:32.079Z,20.10
2018-12-15T00:46:01.137Z,18.83
2018-12-15T00:48:30.806Z,19.63
2018-12-15T00:50:59.844Z,19.10
2018-12-15T00:53:28.879Z,20.13
2018-12-15T00:55:58.069Z,20.53
2018-12-15T00:58:27.604Z,19.03
2018-12-15T01:00:56.876Z,19.83
2018-12-15T01:03:26.023Z,19.57
2018-12-15T01:05:55.068Z,19.57
2018-12-15T01:08:24.220Z,21.87
2018-12-15T01:10:53.460Z,19.33
2018-12-15T01:13:22.577Z,20.07
2018-12-15T01:15:51.685Z,18.80
2018-12-15T01:18:20.776Z,21.07
2018-12-15T01:20:50.618Z,20.47
2018-12-15T01:23:19.823Z,21.27
2018-12-15T01:25:48.945Z,23.43
2018-12-15T01:28:17.973Z,23.57
2018-12-15T01:30:47.028Z,20.70
2018-12-15T01:33:16.065Z,20.00
2018-12-15T01:35:45.343Z,19.23
2018-12-15T01:38:14.508Z,18.33
2018-12-15T01:40:44.158Z,16.87
2018-12-15T01:43:13.215Z,19.47
2018-12-15T01:45:42.248Z,19.67
2018-12-15T01:48:12.233Z,18.27
2018-12-15T01:50:47.912Z,18.00
2018-12-15T01:53:17.677Z,21.03
2018-12-15T01:55:46.862Z,20.80
2018-12-15T01:58:16.746Z,19.53
2018-12-15T02:00:46.174Z,18.57
2018-12-15T02:03:15.239Z,19.67
2018-12-15T02:05:44.338Z,20.40
2018-12-15T02:08:13.666Z,22.10
2018-12-15T02:10:43.553Z,19.13
2018-12-15T02:13:12.903Z,19.97
2018-12-15T02:15:41.978Z,19.63
2018-12-15T02:18:11.172Z,19.30
2018-12-15T02:20:40.208Z,20.07
2018-12-15T02:23:09.371Z,19.13
2018-12-15T02:25:38.518Z,21.07
2018-12-15T02:28:07.573Z,20.20
2018-12-15T02:30:36.616Z,21.07
2018-12-15T02:33:05.752Z,19.17
2018-12-15T02:35:35.176Z,19.87
2018-12-15T02:38:05.072Z,19.90
2018-12-15T02:40:34.388Z,17.93
2018-12-15T02:43:03.415Z,21.57
2018-12-15T02:45:33.321Z,20.30
2018-12-15T02:48:03.248Z,20.17
2018-12-15T02:50:32.392Z,18.27
2018-12-15T02:53:01.443Z,18.97
2018-12-15T02:55:30.966Z,19.50
2018-12-15T02:58:00.038Z,15.83
2018-12-15T03:00:29.164Z,14.97
2018-12-15T03:02:58.231Z,16.43
2018-12-15T03:05:27.470Z,18.13
2018-12-15T03:07:56.659Z,15.90
2018-12-15T03:10:25.970Z,16.37
2018-12-15T03:12:55.197Z,17.10
2018-12-15T03:15:24.316Z,19.13
2018-12-15T03:17:53.372Z,19.70
2018-12-15T03:20:22.862Z,20.63
2018-12-15T03:22:52.070Z,18.50
2018-12-15T03:25:21.113Z,17.83
2018-12-15T03:27:50.150Z,18.37
2018-12-15T03:30:19.393Z,20.90
2018-12-15T03:32:48.496Z,18.50
2018-12-15T03:35:17.554Z,18.37
2018-12-15T03:37:46.644Z,18.83
2018-12-15T03:40:15.706Z,20.50
2018-12-15T03:42:44.739Z,18.07
2018-12-15T03:45:13.784Z,19.30
2018-12-15T03:47:42.870Z,20.20
2018-12-15T03:50:12.014Z,19.13
2018-12-15T03:52:41.109Z,19.33
2018-12-15T03:55:10.160Z,21.00
2018-12-15T03:57:39.194Z,19.20
2018-12-15T04:00:08.439Z,19.70
2018-12-15T04:02:37.916Z,19.83
2018-12-15T04:05:08.308Z,19.87
2018-12-15T04:07:37.360Z,21.30
2018-12-15T04:10:06.588Z,20.13
2018-12-15T04:12:35.864Z,19.00
2018-12-15T04:15:06.150Z,20.60
2018-12-15T04:17:35.292Z,21.07
2018-12-15T04:20:05.059Z,20.47
2018-12-15T04:22:34.361Z,21.67
2018-12-15T04:25:03.998Z,22.70
2018-12-15T04:27:33.148Z,22.30
2018-12-15T04:30:02.510Z,22.43
2018-12-15T04:32:31.679Z,21.73
2018-12-15T04:35:00.878Z,22.73
2018-12-15T04:37:30.025Z,24.70
2018-12-15T04:39:59.849Z,23.60
2018-12-15T04:42:29.191Z,23.07
2018-12-15T04:44:58.380Z,23.03
2018-12-15T04:47:27.722Z,22.33
2018-12-15T04:49:56.775Z,22.17
2018-12-15T04:52:26.108Z,23.60
2018-12-15T04:54:55.761Z,21.97
2018-12-15T04:57:25.108Z,21.50
2018-12-15T04:59:54.759Z,22.20
2018-12-15T05:02:23.956Z,23.47
2018-12-15T05:04:52.993Z,23.30
2018-12-15T05:07:22.016Z,22.43
2018-12-15T05:09:51.252Z,24.53
2018-12-15T05:12:20.290Z,23.40
2018-12-15T05:14:49.376Z,24.50
2018-12-15T05:17:21.619Z,23.07
2018-12-15T05:19:50.675Z,24.57
2018-12-15T05:22:26.714Z,23.67
2018-12-15T05:24:55.994Z,24.37
2018-12-15T05:27:25.446Z,23.57
2018-12-15T05:29:55.565Z,22.37
2018-12-15T05:32:24.665Z,20.73
2018-12-15T05:34:53.951Z,21.63
2018-12-15T05:37:23.191Z,22.53
2018-12-15T05:39:52.303Z,21.77
2018-12-15T05:42:21.530Z,22.37
2018-12-15T05:44:51.220Z,22.13
2018-12-15T05:47:20.299Z,23.47
2018-12-15T05:49:49.450Z,22.80
2018-12-15T05:52:18.507Z,21.63
2018-12-15T05:54:47.631Z,23.37
2018-12-15T05:57:16.918Z,22.97
2018-12-15T05:59:46.024Z,22.73
2018-12-15T06:02:16.451Z,20.83
2018-12-15T06:04:45.607Z,22.50
2018-12-15T06:07:14.810Z,23.30
2018-12-15T06:09:43.959Z,24.00
2018-12-15T06:12:13.024Z,23.13
2018-12-15T06:14:42.466Z,24.20
2018-12-15T06:17:11.659Z,24.73
2018-12-15T06:19:41.174Z,24.13
2018-12-15T06:22:10.426Z,24.47
2018-12-15T06:24:39.643Z,24.57
2018-12-15T06:27:08.822Z,24.63
2018-12-15T06:29:38.171Z,23.30
2018-12-15T06:32:07.289Z,24.23
2018-12-15T06:34:36.465Z,23.80
2018-12-15T06:37:05.778Z,24.47
2018-12-15T06:39:35.023Z,23.20
2018-12-15T06:42:04.532Z,25.40
2018-12-15T06:44:34.110Z,22.73
2018-12-15T06:47:03.224Z,23.13
2018-12-15T06:49:32.601Z,25.33
2018-12-15T06:52:01.724Z,22.67
2018-12-15T06:54:31.978Z,24.17
2018-12-15T06:57:06.362Z,23.63
2018-12-15T06:59:37.224Z,23.33
2018-12-15T07:02:07.018Z,23.70
2018-12-15T07:04:36.300Z,23.93
2018-12-15T07:07:05.708Z,23.83
2018-12-15T07:09:34.756Z,23.83
2018-12-15T07:12:04.032Z,24.70
2018-12-15T07:14:33.917Z,21.47
2018-12-15T07:17:02.987Z,22.67
2018-12-15T07:19:32.041Z,23.90
2018-12-15T07:22:01.249Z,24.27
2018-12-15T07:24:30.531Z,20.83
2018-12-15T07:26:59.600Z,19.87
2018-12-15T07:29:28.816Z,22.07
2018-12-15T07:31:57.886Z,23.20
2018-12-15T07:34:27.025Z,23.10
2018-12-15T07:36:56.647Z,22.90
2018-12-15T07:39:25.795Z,23.90
2018-12-15T07:41:55.064Z,22.23
2018-12-15T07:44:24.139Z,22.70
2018-12-15T07:46:53.204Z,20.63
2018-12-15T07:49:22.242Z,22.83
2018-12-15T07:51:51.314Z,21.00
2018-12-15T07:54:20.802Z,23.43
2018-12-15T07:56:50.338Z,24.20
2018-12-15T07:59:19.573Z,22.70
2018-12-15T08:01:48.640Z,23.50
2018-12-15T08:04:17.714Z,21.40
2018-12-15T08:06:46.912Z,20.77
2018-12-15T08:09:17.762Z,24.33
2018-12-15T08:11:52.709Z,22.73
2018-12-15T08:14:22.760Z,22.23
2018-12-15T08:16:51.876Z,22.83
2018-12-15T08:19:21.756Z,24.50
2018-12-15T08:21:50.914Z,20.80
2018-12-15T08:24:20.173Z,22.83
2018-12-15T08:26:49.242Z,23.17
2018-12-15T08:29:18.687Z,21.20
2018-12-15T08:31:47.774Z,21.27
2018-12-15T08:34:16.849Z,21.60
2018-12-15T08:36:45.969Z,21.07
2018-12-15T08:39:15.256Z,22.93
2018-12-15T08:41:44.882Z,21.90
2018-12-15T08:44:14.835Z,23.40
2018-12-15T08:46:43.923Z,19.67
2018-12-15T08:49:13.717Z,20.20
2018-12-15T08:51:43.050Z,21.93
2018-12-15T08:54:12.293Z,22.90
2018-12-15T08:56:41.479Z,21.17
2018-12-15T08:59:10.633Z,21.77
2018-12-15T09:01:39.935Z,22.57
2018-12-15T09:04:09.367Z,22.27
2018-12-15T09:06:38.430Z,23.20
2018-12-15T09:09:07.701Z,22.93
2018-12-15T09:11:36.845Z,21.90
2018-12-15T09:14:06.199Z,25.77
2018-12-15T09:16:35.254Z,23.77
2018-12-15T09:19:11.015Z,23.57
2018-12-15T09:21:35.665Z,25.47
2018-12-15T09:24:04.928Z,23.07
2018-12-15T09:26:34.062Z,22.60
2018-12-15T09:29:03.331Z,21.70
2018-12-15T09:31:32.607Z,24.20
2018-12-15T09:34:01.781Z,21.47
2018-12-15T09:36:30.923Z,23.73
2018-12-15T09:39:00.181Z,25.13
2018-12-15T09:41:29.423Z,21.67
2018-12-15T09:43:58.613Z,22.60
2018-12-15T09:46:27.858Z,22.40
2018-12-15T09:48:57.105Z,22.07
2018-12-15T09:51:26.377Z,21.37
2018-12-15T09:53:55.524Z,23.30
2018-12-15T09:56:24.761Z,22.17
2018-12-15T09:58:54.044Z,23.53
2018-12-15T10:01:23.162Z,20.03
2018-12-15T10:03:52.471Z,20.70
2018-12-15T10:06:21.752Z,22.33
2018-12-15T10:08:50.938Z,20.83
2018-12-15T10:11:20.045Z,23.93
2018-12-15T10:13:49.268Z,23.07
2018-12-15T10:16:18.539Z,20.73
2018-12-15T10:18:47.797Z,21.30
2018-12-15T10:21:16.998Z,21.03
2018-12-15T10:23:46.402Z,23.20
2018-12-15T10:26:15.460Z,22.40
2018-12-15T10:28:44.643Z,24.37
2018-12-15T10:31:19.203Z,22.63
2018-12-15T10:33:48.273Z,25.57
2018-12-15T10:36:17.312Z,23.40
2018-12-15T10:38:46.544Z,23.10
2018-12-15T10:41:15.648Z,21.37
2018-12-15T10:43:44.696Z,22.80
2018-12-15T10:46:13.762Z,23.17
2018-12-15T10:48:43.024Z,23.53
2018-12-15T10:51:12.127Z,22.63
2018-12-15T10:53:41.600Z,23.27
2018-12-15T10:56:10.638Z,22.30
2018-12-15T10:58:40.340Z,22.97
2018-12-15T11:01:15.073Z,21.77
2018-12-15T11:03:44.329Z,22.70
2018-12-15T11:06:13.782Z,22.57
2018-12-15T11:08:42.940Z,24.87
2018-12-15T11:11:12.598Z,22.83
2018-12-15T11:13:41.718Z,24.53
2018-12-15T11:16:10.973Z,23.40
2018-12-15T11:18:40.484Z,22.60
2018-12-15T11:21:09.688Z,25.40
2018-12-15T11:23:38.951Z,25.70
2018-12-15T11:26:08.464Z,24.17
2018-12-15T11:28:38.469Z,23.73
2018-12-15T11:31:07.898Z,23.53
2018-12-15T11:33:37.130Z,24.63
2018-12-15T11:36:06.398Z,28.53
2018-12-15T11:38:35.697Z,25.03
2018-12-15T11:41:04.899Z,23.57
2018-12-15T11:43:34.144Z,21.60
2018-12-15T11:46:05.254Z,22.37
2018-12-15T11:48:34.581Z,22.63
2018-12-15T11:51:03.701Z,22.63
2018-12-15T11:53:33.190Z,23.07
2018-12-15T11:56:03.342Z,22.50
2018-12-15T11:58:32.462Z,22.73
2018-12-15T12:01:01.751Z,24.33
2018-12-15T12:03:30.844Z,23.30
2018-12-15T12:05:59.952Z,22.43
2018-12-15T12:08:30.544Z,24.90
2018-12-15T12:10:59.928Z,24.77
2018-12-15T12:13:29.325Z,23.13
2018-12-15T12:15:58.397Z,24.50
2018-12-15T12:18:27.450Z,23.93
2018-12-15T12:20:56.880Z,26.33
2018-12-15T12:23:26.192Z,22.77
2018-12-15T12:25:55.421Z,23.83
2018-12-15T12:28:24.547Z,23.90
2018-12-15T12:30:53.973Z,23.43
2018-12-15T12:33:23.142Z,22.83
2018-12-15T12:35:52.388Z,27.27
2018-12-15T12:38:21.546Z,21.93
2018-12-15T12:40:51.680Z,23.53
2018-12-15T12:43:21.197Z,22.50
2018-12-15T12:45:50.486Z,21.83
2018-12-15T12:48:20.064Z,24.53
2018-12-15T12:50:50.145Z,24.20
2018-12-15T12:53:19.245Z,23.97
2018-12-15T12:55:48.461Z,21.30
2018-12-15T12:58:17.601Z,21.30
2018-12-15T13:00:48.200Z,23.13
2018-12-15T13:03:17.336Z,23.63
2018-12-15T13:05:46.539Z,22.43
2018-12-15T13:08:15.753Z,23.10
2018-12-15T13:10:45.089Z,22.60
2018-12-15T13:13:14.155Z,21.80
2018-12-15T13:15:43.453Z,24.33
2018-12-15T13:18:12.735Z,22.43
2018-12-15T13:20:41.832Z,22.07
2018-12-15T13:23:11.140Z,21.70
2018-12-15T13:25:40.343Z,21.87
2018-12-15T13:28:09.535Z,21.03
2018-12-15T13:30:38.869Z,22.80
2018-12-15T13:33:20.148Z,24.43
2018-12-15T13:35:49.348Z,25.77
2018-12-15T13:38:18.455Z,21.17
2018-12-15T13:40:47.747Z,23.77
2018-12-15T13:43:16.976Z,21.57
2018-12-15T13:45:46.121Z,24.77
2018-12-15T13:48:15.328Z,23.80
2018-12-15T13:50:44.387Z,25.93
2018-12-15T13:53:13.501Z,22.13
2018-12-15T13:55:42.838Z,22.97
2018-12-15T13:58:12.367Z,22.30
2018-12-15T14:00:41.499Z,25.37
2018-12-15T14:03:10.704Z,24.90
2018-12-15T14:05:39.836Z,24.50
2018-12-15T14:08:09.185Z,24.23
2018-12-15T14:10:38.357Z,23.97
2018-12-15T14:13:08.003Z,24.10
2018-12-15T14:15:37.193Z,26.27
2018-12-15T14:18:06.495Z,23.00
2018-12-15T14:20:35.667Z,27.07
2018-12-15T14:23:04.893Z,25.07
2018-12-15T14:25:34.190Z,27.10
2018-12-15T14:28:03.399Z,25.53
2018-12-15T14:30:32.701Z,26.70
2018-12-15T14:33:01.763Z,24.67
2018-12-15T14:35:30.985Z,28.00
2018-12-15T14:38:00.089Z,25.03
2018-12-15T14:40:29.164Z,27.37
2018-12-15T14:42:58.303Z,26.83
2018-12-15T14:45:27.972Z,25.33
2018-12-15T14:47:57.033Z,30.47
2018-12-15T14:50:26.206Z,26.23
2018-12-15T14:52:55.269Z,27.83
2018-12-15T14:55:24.322Z,27.07
2018-12-15T14:57:53.542Z,26.70
2018-12-15T15:00:22.583Z,26.33
2018-12-15T15:02:51.811Z,28.23
2018-12-15T15:05:20.985Z,32.27
2018-12-15T15:07:50.154Z,45.10
2018-12-15T15:10:19.279Z,32.07
2018-12-15T15:12:49.075Z,40.83
2018-12-15T15:15:18.615Z,36.17
2018-12-15T15:17:47.871Z,38.93
2018-12-15T15:20:17.052Z,33.63
2018-12-15T15:22:46.176Z,29.77
2018-12-15T15:25:15.340Z,27.03
2018-12-15T15:27:44.709Z,26.73
2018-12-15T15:30:13.886Z,27.87
2018-12-15T15:32:43.089Z,28.07
2018-12-15T15:35:12.390Z,27.40
2018-12-15T15:37:41.487Z,27.03
2018-12-15T15:40:11.151Z,26.23
2018-12-15T15:42:40.247Z,26.97
2018-12-15T15:45:10.370Z,28.43
2018-12-15T15:47:39.456Z,26.87
2018-12-15T15:50:09.387Z,29.13
2018-12-15T15:52:39.994Z,25.93
2018-12-15T15:55:09.189Z,24.33
2018-12-15T15:57:38.304Z,26.60
2018-12-15T16:00:09.415Z,25.63
2018-12-15T16:02:38.586Z,25.10
2018-12-15T16:05:07.965Z,26.10
2018-12-15T16:07:37.119Z,25.17
2018-12-15T16:10:09.463Z,23.37
2018-12-15T16:12:38.532Z,27.57
2018-12-15T16:15:09.328Z,24.23
2018-12-15T16:17:38.532Z,21.47
2018-12-15T16:20:10.704Z,23.80
2018-12-15T16:22:40.312Z,22.77
2018-12-15T16:25:09.535Z,23.10
2018-12-15T16:27:38.710Z,22.00
2018-12-15T16:30:11.420Z,25.77
2018-12-15T16:32:40.733Z,22.97
2018-12-15T16:35:09.977Z,23.10
2018-12-15T16:37:39.106Z,26.00
2018-12-15T16:40:09.713Z,23.17
2018-12-15T16:42:39.253Z,23.97
2018-12-15T16:45:10.635Z,24.20
2018-12-15T16:47:39.676Z,25.97
2018-12-15T16:50:13.590Z,26.53
2018-12-15T16:52:43.850Z,24.93
2018-12-15T16:55:13.352Z,25.57
2018-12-15T16:57:42.421Z,24.30
2018-12-15T17:00:14.216Z,25.27
2018-12-15T17:02:43.378Z,22.87
2018-12-15T17:05:12.643Z,24.30
2018-12-15T17:07:41.831Z,25.57
2018-12-15T17:10:11.209Z,25.10
2018-12-15T17:12:40.397Z,23.80
2018-12-15T17:15:10.273Z,22.17
2018-12-15T17:17:39.353Z,25.90
2018-12-15T17:20:11.478Z,24.93
2018-12-15T17:22:40.834Z,26.10
2018-12-15T17:25:10.339Z,26.50
2018-12-15T17:27:39.589Z,24.17
2018-12-15T17:30:10.573Z,25.93
2018-12-15T17:32:39.618Z,23.80
2018-12-15T17:35:08.917Z,24.67
2018-12-15T17:37:38.217Z,23.23
2018-12-15T17:40:09.527Z,26.60
2018-12-15T17:42:38.761Z,24.97
2018-12-15T17:45:08.710Z,26.10
2018-12-15T17:47:37.853Z,28.23
2018-12-15T17:50:09.110Z,27.43
2018-12-15T17:52:38.196Z,25.53
2018-12-15T17:55:07.515Z,26.10
2018-12-15T17:57:36.742Z,25.57
2018-12-15T18:00:13.354Z,25.80
2018-12-15T18:02:43.739Z,25.47
2018-12-15T18:05:13.304Z,26.77
2018-12-15T18:07:42.470Z,26.90
2018-12-15T18:10:11.975Z,27.47
2018-12-15T18:12:41.073Z,26.13
2018-12-15T18:15:10.285Z,28.17
2018-12-15T18:17:39.424Z,29.83
2018-12-15T18:20:10.593Z,28.80
2018-12-15T18:22:39.669Z,28.23
2018-12-15T18:25:08.893Z,28.80
2018-12-15T18:27:37.981Z,26.53
2018-12-15T18:30:10.803Z,26.03
2018-12-15T18:32:39.997Z,28.53
2018-12-15T18:35:09.272Z,27.03
2018-12-15T18:37:38.333Z,26.73
2018-12-15T18:40:08.631Z,26.37
2018-12-15T18:42:37.686Z,27.33
2018-12-15T18:45:07.554Z,29.10
2018-12-15T18:47:36.842Z,27.70
2018-12-15T18:50:08.059Z,31.70
2018-12-15T18:52:37.250Z,26.50
2018-12-15T18:55:06.661Z,30.73
2018-12-15T18:57:35.730Z,26.53
2018-12-15T19:00:06.262Z,33.20
2018-12-15T19:02:35.567Z,26.20
2018-12-15T19:05:05.755Z,28.30
2018-12-15T19:07:35.000Z,27.03
2018-12-15T19:10:05.530Z,25.10
2018-12-15T19:12:34.575Z,27.50
2018-12-15T19:15:04.241Z,24.60
2018-12-15T19:17:33.300Z,28.13
2018-12-15T19:20:02.665Z,24.80
2018-12-15T19:22:31.826Z,25.40
2018-12-15T19:25:01.041Z,28.70
2018-12-15T19:27:30.077Z,23.63
2018-12-15T19:29:59.232Z,24.73
2018-12-15T19:32:28.314Z,27.73
2018-12-15T19:34:57.527Z,27.63
2018-12-15T19:37:26.578Z,26.43
2018-12-15T19:39:55.641Z,32.80
2018-12-15T19:42:24.918Z,26.03
2018-12-15T19:44:54.353Z,29.87
2018-12-15T19:47:23.528Z,26.77
2018-12-15T19:49:52.834Z,27.90
2018-12-15T19:52:22.164Z,27.27
2018-12-15T19:54:52.503Z,25.70
2018-12-15T19:57:21.889Z,26.07
2018-12-15T19:59:51.074Z,27.47
2018-12-15T20:02:20.709Z,26.47
2018-12-15T20:04:50.046Z,28.33
2018-12-15T20:07:19.326Z,29.20
2018-12-15T20:09:48.787Z,29.50
2018-12-15T20:12:18.146Z,25.93
2018-12-15T20:14:47.860Z,27.83
2018-12-15T20:17:17.106Z,26.87
2018-12-15T20:19:46.279Z,27.57
2018-12-15T20:22:15.496Z,29.53
2018-12-15T20:24:44.800Z,26.80
2018-12-15T20:27:13.936Z,28.97
2018-12-15T20:29:43.310Z,28.80
2018-12-15T20:32:12.574Z,28.17
2018-12-15T20:34:42.045Z,29.10
2018-12-15T20:37:12.030Z,27.07
2018-12-15T20:39:41.574Z,30.63
2018-12-15T20:42:11.133Z,30.50
2018-12-15T20:44:41.842Z,27.47
2018-12-15T20:47:11.670Z,29.13
2018-12-15T20:49:40.891Z,30.87
2018-12-15T20:52:10.130Z,30.67
2018-12-15T20:54:40.382Z,28.80
2018-12-15T20:57:09.502Z,32.23
2018-12-15T20:59:38.695Z,31.37
2018-12-15T21:02:08.168Z,31.50
2018-12-15T21:04:38.679Z,35.17
2018-12-15T21:07:07.994Z,34.53
2018-12-15T21:09:37.051Z,33.63
2018-12-15T21:12:06.157Z,34.87
2018-12-15T21:14:35.431Z,35.53
2018-12-15T21:17:04.950Z,35.43
2018-12-15T21:19:34.156Z,37.53
2018-12-15T21:22:03.331Z,36.37
2018-12-15T21:24:32.473Z,36.47
2018-12-15T21:27:01.746Z,41.43
2018-12-15T21:29:30.852Z,37.67
2018-12-15T21:31:59.913Z,40.27
2018-12-15T21:34:28.961Z,38.87
2018-12-15T21:36:58.061Z,40.17
2018-12-15T21:39:27.492Z,41.13
2018-12-15T21:41:56.991Z,41.30
2018-12-15T21:44:27.199Z,41.03
2018-12-15T21:46:56.497Z,44.93
2018-12-15T21:49:26.326Z,43.33
2018-12-15T21:51:56.381Z,46.20
2018-12-15T21:54:25.847Z,46.77
2018-12-15T21:56:55.645Z,46.50
2018-12-15T21:59:25.005Z,44.80
2018-12-15T22:01:54.371Z,42.90
2018-12-15T22:04:24.668Z,47.93
2018-12-15T22:06:53.919Z,46.13
2018-12-15T22:09:23.104Z,48.07
2018-12-15T22:11:52.615Z,49.60
2018-12-15T22:14:21.836Z,50.10
2018-12-15T22:16:51.657Z,52.07
2018-12-15T22:19:20.886Z,47.30
2018-12-15T22:21:50.858Z,49.30
2018-12-15T22:24:19.994Z,50.37
2018-12-15T22:26:49.690Z,46.87
2018-12-15T22:29:18.747Z,48.33
2018-12-15T22:31:48.000Z,48.53
2018-12-15T22:34:17.431Z,50.07
2018-12-15T22:36:46.807Z,52.40
2018-12-15T22:39:16.086Z,48.97
2018-12-15T22:41:45.980Z,51.63
2018-12-15T22:44:15.014Z,50.53
2018-12-15T22:46:44.342Z,46.87
2018-12-15T22:49:13.406Z,50.30
2018-12-15T22:51:42.578Z,49.10
2018-12-15T22:54:11.775Z,49.67
2018-12-15T22:56:41.138Z,47.97
2018-12-15T22:59:10.227Z,49.97
2018-12-15T23:01:44.651Z,50.60
2018-12-15T23:04:14.924Z,46.73
2018-12-15T23:06:44.688Z,50.50
2018-12-15T23:09:13.870Z,53.20
2018-12-15T23:11:43.721Z,51.10
2018-12-15T23:14:12.898Z,55.57
2018-12-15T23:16:42.059Z,56.50
2018-12-15T23:19:11.458Z,56.27
2018-12-15T23:21:42.203Z,58.27
2018-12-15T23:24:11.267Z,55.57
2018-12-15T23:26:40.438Z,58.83
2018-12-15T23:29:10.159Z,54.30
2018-12-15T23:31:39.308Z,55.37
2018-12-15T23:34:08.376Z,56.30
2018-12-15T23:36:37.442Z,55.83
2018-12-15T23:39:07.975Z,56.13
2018-12-15T23:41:37.053Z,56.07
2018-12-15T23:44:06.216Z,54.13
2018-12-15T23:46:35.562Z,55.17
2018-12-15T23:49:04.665Z,54.17
2018-12-15T23:51:34.544Z,55.33
2018-12-15T23:54:04.438Z,58.13
2018-12-15T23:56:33.907Z,53.77
2018-12-15T23:59:03.059Z,56.63
